KJAS

Details ICAO KJAS
Name JASPER CO BELL FLD
Region United States
Timezone America/Chicago (UTC-6.0)
Plans Departing 1
Arriving 1
Stats Elevation 213 ft / 65 m (AMSL)
Location 30.885707° -94.034937°
Runways 1
Magnetic Variation 1.635° E
Sunrise 2017-12-15 13:08:07 UTC / 2017-12-15 07:08:07 Local
Sunset 2017-12-15 23:17:30 UTC / 2017-12-15 17:17:30 Local
Advertisement - Login to hide

Runways

ID Width Length Bearing (true) Bearing (mag) Surface Threshold Offset Overrun Length
18 70 ft / 21 m 5,518 ft / 1,682 m 180.94° 179.31° Asphalt 0 ft / 0 m 0 ft / 0 m
36 70 ft / 21 m 5,518 ft / 1,682 m 0.94° 359.31° Asphalt 0 ft / 0 m 0 ft / 0 m

Map

Weather


0- 5 10 15 20 25 30 35+ Temperature / ° C

Clouds and Precipitation
Forecast for 2017-12-15 18:00 UTC. Updated an hour ago

Ground ~20,000 ft ~40,000 ft Winds

METAR

KJAS 151755Z AUTO 04003KT 10SM CLR 10/01 A3032 RMK AO2 T00990011

TAF

Not found

Frequencies

Recorded 118.37 MHz AWOS 3
Unicom 122.80 MHz CTAF/UNICOM
Warning: Do not use this data for real-world aviation or navigation. No guarantee of current accuracy is given.